createdAt,value
2023-05-22T00:05:20.114Z,9
2023-05-22T00:21:02.147Z,7.3
2023-05-22T00:36:44.160Z,7.2
2023-05-22T00:52:26.643Z,7.1
2023-05-22T01:08:09.441Z,7.3
2023-05-22T01:23:51.836Z,6.9
2023-05-22T01:39:34.131Z,6.8
2023-05-22T01:55:16.598Z,7.8
2023-05-22T02:10:58.643Z,8.3
2023-05-22T02:26:41.474Z,10.6
2023-05-22T02:42:23.984Z,8.1
2023-05-22T02:58:06.546Z,7.8
2023-05-22T03:13:49.135Z,8.89
2023-05-22T03:29:31.859Z,8.5
2023-05-22T03:45:14.328Z,9.7
2023-05-22T04:00:56.564Z,9.1
2023-05-22T04:16:38.827Z,8.39
2023-05-22T04:32:20.960Z,9.39
2023-05-22T04:48:03.376Z,9.1
2023-05-22T05:03:46.108Z,10.4
2023-05-22T05:19:29.094Z,8.7
2023-05-22T05:35:11.899Z,8.8
2023-05-22T05:50:54.426Z,10.9
2023-05-22T06:06:37.205Z,9.39
2023-05-22T06:22:20.005Z,9.2
2023-05-22T06:38:02.699Z,9.6
2023-05-22T06:53:45.579Z,9.7
2023-05-22T07:09:27.904Z,9
2023-05-22T07:25:10.574Z,8.5
2023-05-22T07:40:53.159Z,10.3
2023-05-22T07:56:35.331Z,8.7
2023-05-22T08:12:18.028Z,8.2
2023-05-22T08:28:00.793Z,7.4
2023-05-22T08:43:45.218Z,7.6
2023-05-22T08:59:25.105Z,7.6
2023-05-22T09:15:07.909Z,7.4
2023-05-22T09:30:50.117Z,8.1
2023-05-22T09:46:32.775Z,8.2
2023-05-22T10:02:16.018Z,8.7
2023-05-22T10:17:58.125Z,7.8
2023-05-22T10:33:40.745Z,7.3
2023-05-22T10:49:23.719Z,7.3
2023-05-22T11:05:06.805Z,6.7
2023-05-22T11:20:49.759Z,5.9
2023-05-22T11:36:31.376Z,6.1
2023-05-22T11:52:14.078Z,8.7
2023-05-22T12:07:56.559Z,5.5
2023-05-22T12:23:39.058Z,5.9
2023-05-22T12:39:21.531Z,5.9
2023-05-22T12:55:04.292Z,5
2023-05-22T13:10:46.350Z,5.7
2023-05-22T13:26:28.591Z,5
2023-05-22T13:42:10.566Z,5.3
2023-05-22T13:57:52.441Z,5
2023-05-22T14:13:35.526Z,4.5
2023-05-22T14:29:17.494Z,6.1
2023-05-22T14:45:01.544Z,5
2023-05-22T15:00:42.773Z,6.7
2023-05-22T15:16:25.919Z,5.8
2023-05-22T15:32:07.260Z,5.4
2023-05-22T15:32:54.378Z,4.6
2023-05-22T15:48:37.024Z,6
2023-05-22T16:04:19.582Z,7.5
2023-05-22T16:20:01.719Z,7.9
2023-05-22T16:35:44.402Z,4.8
2023-05-22T16:51:27.107Z,6.2
2023-05-22T17:07:09.215Z,6.9
2023-05-22T17:22:51.130Z,5.9
2023-05-22T17:38:33.482Z,6.2
2023-05-22T17:54:15.760Z,5.9
2023-05-22T18:09:57.846Z,5.6
2023-05-22T18:25:40.719Z,6.7
2023-05-22T18:41:22.809Z,6.1
2023-05-22T18:57:05.596Z,6.9
2023-05-22T19:12:48.207Z,6.9
2023-05-22T19:28:30.289Z,6.6
2023-05-22T19:44:12.721Z,7.3
2023-05-22T19:59:54.879Z,7.3
2023-05-22T20:15:37.525Z,7.5
2023-05-22T20:31:20.366Z,6.7
2023-05-22T20:47:03.128Z,8.3
2023-05-22T21:02:45.971Z,7.4
2023-05-22T21:18:28.849Z,7.6
2023-05-22T21:34:11.072Z,7.4
2023-05-22T21:49:53.111Z,8.8
2023-05-22T22:05:36.086Z,10.8
2023-05-22T22:21:18.741Z,6.7
2023-05-22T22:37:01.463Z,8.89
2023-05-22T22:52:43.997Z,7.2
2023-05-22T23:08:26.024Z,8
2023-05-22T23:24:08.768Z,8.3
2023-05-22T23:39:51.352Z,7.7
2023-05-22T23:55:34.161Z,7.5
